createdAt,value
2022-11-22T00:00:18.574Z,5.10
2022-11-22T00:02:45.942Z,5.10
2022-11-22T00:05:12.882Z,5.10
2022-11-22T00:07:39.898Z,5.10
2022-11-22T00:10:09.374Z,5.10
2022-11-22T00:12:36.627Z,5.10
2022-11-22T00:15:04.575Z,5.10
2022-11-22T00:17:35.179Z,5.10
2022-11-22T00:20:02.410Z,5.10
2022-11-22T00:22:30.583Z,5.10
2022-11-22T00:24:57.358Z,5.10
2022-11-22T00:27:24.566Z,5.10
2022-11-22T00:29:51.310Z,5.10
2022-11-22T00:32:18.068Z,5.10
2022-11-22T00:34:44.880Z,5.10
2022-11-22T00:37:11.658Z,5.10
2022-11-22T00:39:38.478Z,5.10
2022-11-22T00:42:05.410Z,5.10
2022-11-22T00:44:32.223Z,5.10
2022-11-22T00:46:59.034Z,5.10
2022-11-22T00:49:25.838Z,5.10
2022-11-22T00:51:53.047Z,5.10
2022-11-22T00:54:19.846Z,5.10
2022-11-22T00:56:46.604Z,5.20
2022-11-22T00:59:13.566Z,5.20
2022-11-22T01:01:40.414Z,5.20
2022-11-22T01:04:07.430Z,5.10
2022-11-22T01:06:34.319Z,5.20
2022-11-22T01:09:01.100Z,5.20
2022-11-22T01:11:27.894Z,5.20
2022-11-22T01:13:54.710Z,5.20
2022-11-22T01:16:21.538Z,5.20
2022-11-22T01:18:48.439Z,5.20
2022-11-22T01:21:15.282Z,5.20
2022-11-22T01:23:42.111Z,5.10
2022-11-22T01:26:09.585Z,5.10
2022-11-22T01:28:37.018Z,5.10
2022-11-22T01:31:04.927Z,5.10
2022-11-22T01:33:31.784Z,5.10
2022-11-22T01:35:58.670Z,5.10
2022-11-22T01:38:25.760Z,5.10
2022-11-22T01:40:53.331Z,5.10
2022-11-22T01:43:23.134Z,5.10
2022-11-22T01:46:03.910Z,5.10
2022-11-22T01:48:52.877Z,5.10
2022-11-22T01:51:42.316Z,5.10
2022-11-22T01:54:15.594Z,5.10
2022-11-22T01:56:46.231Z,5.10
2022-11-22T01:59:16.958Z,5.10
2022-11-22T02:01:44.055Z,5.10
2022-11-22T02:04:14.171Z,5.10
2022-11-22T02:07:02.491Z,5.10
2022-11-22T02:09:30.726Z,5.10
2022-11-22T02:12:02.195Z,5.10
2022-11-22T02:14:29.867Z,5.10
2022-11-22T02:16:57.087Z,5.10
2022-11-22T02:19:37.411Z,5.00
2022-11-22T02:22:20.053Z,5.00
2022-11-22T02:24:59.702Z,5.00
2022-11-22T02:27:26.683Z,5.00
2022-11-22T02:29:53.470Z,5.00
2022-11-22T02:32:20.603Z,5.00
2022-11-22T02:34:50.007Z,5.00
2022-11-22T02:37:23.059Z,5.10
2022-11-22T02:40:04.839Z,5.10
2022-11-22T02:42:32.432Z,5.10
2022-11-22T02:44:59.231Z,5.20
2022-11-22T02:47:26.029Z,5.20
2022-11-22T02:49:53.919Z,5.20
2022-11-22T02:52:20.728Z,5.20
2022-11-22T02:54:47.559Z,5.20
2022-11-22T02:57:14.367Z,5.30
2022-11-22T02:59:41.200Z,5.30
2022-11-22T03:02:09.993Z,5.30
2022-11-22T03:04:36.859Z,5.30
2022-11-22T03:07:04.520Z,5.20
2022-11-22T03:09:32.412Z,5.30
2022-11-22T03:11:59.768Z,5.30
2022-11-22T03:14:26.613Z,5.30
2022-11-22T03:16:53.438Z,5.30
2022-11-22T03:19:20.527Z,5.30
2022-11-22T03:21:47.321Z,5.30
2022-11-22T03:24:14.630Z,5.30
2022-11-22T03:26:42.031Z,5.30
2022-11-22T03:29:08.801Z,5.30
2022-11-22T03:31:36.251Z,5.30
2022-11-22T03:34:03.120Z,5.30
2022-11-22T03:36:29.972Z,5.20
2022-11-22T03:38:56.796Z,5.30
2022-11-22T03:41:23.556Z,5.30
2022-11-22T03:43:50.332Z,5.30
2022-11-22T03:46:19.520Z,5.30
2022-11-22T03:48:47.080Z,5.30
2022-11-22T03:51:14.361Z,5.30
2022-11-22T03:53:41.401Z,5.30
2022-11-22T03:56:08.316Z,5.30
2022-11-22T03:58:35.418Z,5.30
2022-11-22T04:01:02.345Z,5.30
2022-11-22T04:03:29.425Z,5.30
2022-11-22T04:05:56.520Z,5.20
2022-11-22T04:08:23.516Z,5.20
2022-11-22T04:10:51.534Z,5.20
2022-11-22T04:13:19.216Z,5.20
2022-11-22T04:15:46.017Z,5.20
2022-11-22T04:18:13.938Z,5.20
2022-11-22T04:20:59.703Z,5.20
2022-11-22T04:23:32.435Z,5.20
2022-11-22T04:26:00.471Z,5.20
2022-11-22T04:28:53.725Z,5.20
2022-11-22T04:31:32.668Z,5.20
2022-11-22T04:33:59.468Z,5.20
2022-11-22T04:36:26.221Z,5.20
2022-11-22T04:38:52.977Z,5.20
2022-11-22T04:41:19.760Z,5.20
2022-11-22T04:44:05.256Z,5.20
2022-11-22T04:46:32.066Z,5.20
2022-11-22T04:48:58.853Z,5.20
2022-11-22T04:51:44.338Z,5.20
2022-11-22T04:54:11.113Z,5.20
2022-11-22T04:56:37.901Z,5.20
2022-11-22T04:59:04.730Z,5.20
2022-11-22T05:01:31.657Z,5.20
2022-11-22T05:03:58.487Z,5.20
2022-11-22T05:06:25.321Z,5.20
2022-11-22T05:08:52.123Z,5.20
2022-11-22T05:11:18.903Z,5.20
2022-11-22T05:13:45.749Z,5.20
2022-11-22T05:16:14.515Z,5.20
2022-11-22T05:18:41.932Z,5.20
2022-11-22T05:21:14.175Z,5.10
2022-11-22T05:23:56.449Z,5.10
2022-11-22T05:26:27.876Z,5.10
2022-11-22T05:28:55.241Z,5.10
2022-11-22T05:31:23.623Z,5.10
2022-11-22T05:33:55.708Z,5.10
2022-11-22T05:36:23.949Z,5.10
2022-11-22T05:38:50.968Z,5.20
2022-11-22T05:41:18.497Z,5.20
2022-11-22T05:43:45.349Z,5.10
2022-11-22T05:46:23.557Z,5.10
2022-11-22T05:48:51.102Z,5.10
2022-11-22T05:51:20.778Z,5.10
2022-11-22T05:53:47.873Z,5.10
2022-11-22T05:56:17.431Z,5.10
2022-11-22T05:58:44.947Z,5.20
2022-11-22T06:01:18.330Z,5.20
2022-11-22T06:03:45.517Z,5.20
2022-11-22T06:06:12.698Z,5.30
2022-11-22T06:08:41.649Z,5.20
2022-11-22T06:11:22.692Z,5.20
2022-11-22T06:13:52.585Z,5.20
2022-11-22T06:16:19.877Z,5.20
2022-11-22T06:18:47.547Z,5.20
2022-11-22T06:21:18.419Z,5.30
2022-11-22T06:23:45.832Z,5.30
2022-11-22T06:26:15.497Z,5.30
2022-11-22T06:28:42.952Z,5.30
2022-11-22T06:31:11.368Z,5.30
2022-11-22T06:33:39.182Z,5.30
2022-11-22T06:36:07.556Z,5.30
2022-11-22T06:38:34.392Z,5.30
2022-11-22T06:41:06.207Z,5.30
2022-11-22T06:43:34.306Z,5.30
2022-11-22T06:46:02.450Z,5.30
2022-11-22T06:48:30.404Z,5.30
2022-11-22T06:51:01.705Z,5.30
2022-11-22T06:53:46.266Z,5.30
2022-11-22T06:56:31.666Z,5.30
2022-11-22T06:59:03.883Z,5.30
2022-11-22T07:01:31.777Z,5.30
2022-11-22T07:03:59.793Z,5.30
2022-11-22T07:06:31.955Z,5.30
2022-11-22T07:09:03.879Z,5.30
2022-11-22T07:11:32.019Z,5.30
2022-11-22T07:14:07.174Z,5.20
2022-11-22T07:16:36.678Z,5.20
2022-11-22T07:19:04.819Z,5.30
2022-11-22T07:21:32.558Z,5.30
2022-11-22T07:23:59.435Z,5.30
2022-11-22T07:26:26.820Z,5.30
2022-11-22T07:28:53.710Z,5.30
2022-11-22T07:31:20.974Z,5.30
2022-11-22T07:33:48.080Z,5.30
2022-11-22T07:36:20.418Z,5.30
2022-11-22T07:38:48.557Z,5.30
2022-11-22T07:41:16.354Z,5.30
2022-11-22T07:43:43.283Z,5.30
2022-11-22T07:46:31.344Z,5.30
2022-11-22T07:48:59.591Z,5.30
2022-11-22T07:51:27.297Z,5.30
2022-11-22T07:53:55.923Z,5.30
2022-11-22T07:56:23.132Z,5.30
2022-11-22T07:58:49.883Z,5.30
2022-11-22T08:01:18.811Z,5.30
2022-11-22T08:03:46.632Z,5.30
2022-11-22T08:06:14.216Z,5.40
2022-11-22T08:08:41.369Z,5.40
2022-11-22T08:11:08.447Z,5.40
2022-11-22T08:13:35.978Z,5.40
2022-11-22T08:16:06.087Z,5.40
2022-11-22T08:18:34.463Z,5.40
2022-11-22T08:21:12.477Z,5.30
2022-11-22T08:23:40.475Z,5.40
2022-11-22T08:26:09.538Z,5.30
2022-11-22T08:28:36.476Z,5.40
2022-11-22T08:31:05.720Z,5.40
2022-11-22T08:33:32.730Z,5.40
2022-11-22T08:35:59.623Z,5.40
2022-11-22T08:38:27.021Z,5.40
2022-11-22T08:40:54.398Z,5.40
2022-11-22T08:43:21.403Z,5.50
2022-11-22T08:45:53.487Z,5.50
2022-11-22T08:48:22.410Z,5.40
2022-11-22T08:50:54.052Z,5.40
2022-11-22T08:53:21.253Z,5.50
2022-11-22T08:55:48.123Z,5.50
2022-11-22T08:58:14.980Z,5.50
2022-11-22T09:00:42.075Z,5.50
2022-11-22T09:03:09.004Z,5.50
2022-11-22T09:05:36.612Z,5.50
2022-11-22T09:10:50.891Z,5.50
2022-11-22T09:13:17.636Z,5.50
2022-11-22T09:15:44.412Z,5.50
2022-11-22T09:18:11.231Z,5.50
2022-11-22T09:20:38.031Z,5.40
2022-11-22T09:23:04.887Z,5.40
2022-11-22T09:25:31.743Z,5.50
2022-11-22T09:28:04.564Z,5.50
2022-11-22T09:30:31.681Z,5.50
2022-11-22T09:32:58.583Z,5.50
2022-11-22T09:35:25.377Z,5.50
2022-11-22T09:37:52.228Z,5.50
2022-11-22T09:40:19.063Z,5.60
2022-11-22T09:43:26.908Z,5.60
2022-11-22T09:46:37.940Z,5.60
2022-11-22T09:49:27.538Z,5.70
2022-11-22T09:52:06.196Z,5.70
2022-11-22T09:54:54.295Z,5.70
2022-11-22T09:57:31.939Z,5.70
2022-11-22T10:00:04.982Z,5.70
2022-11-22T10:02:59.418Z,5.70
2022-11-22T10:05:33.244Z,5.70
2022-11-22T10:08:17.673Z,5.80
2022-11-22T10:10:44.654Z,5.80
2022-11-22T10:13:19.525Z,5.80
2022-11-22T10:15:49.100Z,5.90
2022-11-22T10:18:31.911Z,5.90
2022-11-22T10:21:00.512Z,5.90
2022-11-22T10:23:27.776Z,6.00
2022-11-22T10:26:00.033Z,6.00
2022-11-22T10:28:29.571Z,6.00
2022-11-22T10:31:07.212Z,6.00
2022-11-22T10:33:44.163Z,6.00
2022-11-22T10:36:26.653Z,6.00
2022-11-22T10:38:56.232Z,6.00
2022-11-22T10:41:25.968Z,6.00
2022-11-22T10:44:31.008Z,6.10
2022-11-22T10:46:57.778Z,6.10
2022-11-22T10:49:42.805Z,6.10
2022-11-22T10:52:09.634Z,6.20
2022-11-22T10:55:04.600Z,6.20
2022-11-22T10:57:43.100Z,6.20
2022-11-22T11:00:23.130Z,6.20
2022-11-22T11:03:05.544Z,6.20
2022-11-22T11:09:47.628Z,6.20
2022-11-22T11:11:45.413Z,6.30
2022-11-22T11:14:41.375Z,6.30
2022-11-22T11:17:08.216Z,6.30
2022-11-22T11:19:41.790Z,6.30
2022-11-22T11:22:08.550Z,6.30
2022-11-22T11:24:39.940Z,6.40
2022-11-22T11:27:09.364Z,6.40
2022-11-22T11:29:41.587Z,6.40
2022-11-22T11:32:14.195Z,6.40
2022-11-22T11:34:54.305Z,6.40
2022-11-22T11:37:32.191Z,6.40
2022-11-22T11:39:58.958Z,6.30
2022-11-22T11:42:31.198Z,6.40
2022-11-22T11:45:20.230Z,6.40
2022-11-22T11:47:47.081Z,6.40
2022-11-22T11:50:24.314Z,6.40
2022-11-22T11:52:57.164Z,6.30
2022-11-22T11:55:24.948Z,6.30
2022-11-22T11:57:53.171Z,6.40
2022-11-22T12:00:38.023Z,6.40
2022-11-22T12:03:12.230Z,6.40
2022-11-22T12:05:39.032Z,6.40
2022-11-22T12:08:31.868Z,6.40
2022-11-22T12:11:16.432Z,6.40
2022-11-22T12:14:18.593Z,6.40
2022-11-22T12:16:43.256Z,6.50
2022-11-22T12:19:24.598Z,6.40
2022-11-22T12:22:35.503Z,6.40
2022-11-22T12:25:33.429Z,6.40
2022-11-22T12:28:18.133Z,6.50
2022-11-22T12:30:48.376Z,6.40
2022-11-22T12:33:26.064Z,6.40
2022-11-22T12:35:54.532Z,6.40
2022-11-22T12:38:34.092Z,6.40
2022-11-22T12:41:05.288Z,6.40
2022-11-22T12:43:37.713Z,6.40
2022-11-22T12:46:11.697Z,6.40
2022-11-22T12:48:48.680Z,6.40
2022-11-22T12:51:27.876Z,6.40
2022-11-22T12:54:00.741Z,6.50
2022-11-22T12:56:50.297Z,6.40
2022-11-22T12:59:35.132Z,6.40
2022-11-22T13:02:26.972Z,6.40
2022-11-22T13:05:15.381Z,6.40
2022-11-22T13:08:09.723Z,6.40
2022-11-22T13:10:36.437Z,6.40
2022-11-22T13:13:06.555Z,6.40
2022-11-22T13:15:37.469Z,6.40
2022-11-22T13:18:09.518Z,6.40
2022-11-22T13:20:43.220Z,6.40
2022-11-22T13:23:41.022Z,6.40
2022-11-22T13:26:26.937Z,6.40
2022-11-22T13:28:54.823Z,6.30
2022-11-22T13:31:21.873Z,6.30
2022-11-22T13:34:24.304Z,6.30
2022-11-22T13:36:52.393Z,6.30
2022-11-22T13:39:23.095Z,6.20
2022-11-22T13:41:59.193Z,6.30
2022-11-22T13:44:34.513Z,6.30
2022-11-22T13:47:05.673Z,6.30
2022-11-22T13:49:36.870Z,6.30
2022-11-22T13:52:25.795Z,6.30
2022-11-22T13:54:58.630Z,6.20
2022-11-22T13:57:37.491Z,6.20
2022-11-22T14:00:16.246Z,6.20
2022-11-22T14:02:45.005Z,6.10
2022-11-22T14:05:41.355Z,6.10
2022-11-22T14:08:30.305Z,6.20
2022-11-22T14:10:57.039Z,6.20
2022-11-22T14:13:48.341Z,6.20
2022-11-22T14:16:39.922Z,6.20
2022-11-22T14:19:19.008Z,6.20
2022-11-22T14:22:18.133Z,6.10
2022-11-22T14:25:10.346Z,6.10
2022-11-22T14:27:47.151Z,6.00
2022-11-22T14:30:42.302Z,6.00
2022-11-22T14:33:19.206Z,6.00
2022-11-22T14:36:12.301Z,6.00
2022-11-22T14:38:40.630Z,6.00
2022-11-22T14:41:26.102Z,6.10
2022-11-22T14:44:05.901Z,6.00
2022-11-22T14:46:52.775Z,6.00
2022-11-22T14:50:00.237Z,6.00
2022-11-22T14:52:32.005Z,6.00
2022-11-22T14:55:06.176Z,6.00
2022-11-22T14:57:36.607Z,6.00
2022-11-22T15:00:21.885Z,5.90
2022-11-22T15:03:26.187Z,6.00
2022-11-22T15:09:13.542Z,6.00
2022-11-22T15:09:15.080Z,6.00
2022-11-22T15:12:07.328Z,6.00
2022-11-22T15:14:37.229Z,6.00
2022-11-22T15:58:13.668Z,5.90
2022-11-22T16:00:43.797Z,5.90
2022-11-22T16:03:22.809Z,5.90
2022-11-22T16:06:08.487Z,5.90
2022-11-22T16:08:36.966Z,5.90
2022-11-22T16:11:04.622Z,5.90
2022-11-22T16:13:36.260Z,5.90
2022-11-22T16:16:12.601Z,5.90
2022-11-22T16:18:43.726Z,5.90
2022-11-22T16:21:11.259Z,5.90
2022-11-22T16:23:39.283Z,5.80
2022-11-22T16:26:19.127Z,5.90
2022-11-22T16:28:51.368Z,5.80
2022-11-22T16:31:27.454Z,5.80
2022-11-22T16:33:55.560Z,5.80
2022-11-22T16:36:24.651Z,5.70
2022-11-22T16:38:51.443Z,5.80
2022-11-22T16:41:24.157Z,5.80
2022-11-22T16:43:54.076Z,5.80
2022-11-22T16:46:21.343Z,5.70
2022-11-22T16:48:48.562Z,5.70
2022-11-22T16:51:23.222Z,5.70
2022-11-22T16:53:51.343Z,5.60
2022-11-22T16:56:19.588Z,5.70
2022-11-22T16:58:47.939Z,5.70
2022-11-22T17:01:17.076Z,5.60
2022-11-22T17:03:45.586Z,5.60
2022-11-22T17:06:18.765Z,5.50
2022-11-22T17:08:47.375Z,5.50
2022-11-22T17:11:19.886Z,5.50
2022-11-22T17:13:47.293Z,5.50
2022-11-22T17:16:15.291Z,5.60
2022-11-22T17:18:42.192Z,5.60
2022-11-22T17:21:31.560Z,5.60
2022-11-22T17:24:05.741Z,5.60
2022-11-22T17:26:34.719Z,5.60
2022-11-22T17:29:01.794Z,5.60
2022-11-22T17:31:29.149Z,5.60
2022-11-22T17:33:58.323Z,5.60
2022-11-22T17:36:36.287Z,5.60
2022-11-22T17:39:08.686Z,5.60
2022-11-22T17:41:35.545Z,5.60
2022-11-22T17:44:03.438Z,5.50
2022-11-22T17:46:32.951Z,5.50
2022-11-22T17:49:01.724Z,5.50
2022-11-22T17:51:30.174Z,5.50
2022-11-22T17:54:00.491Z,5.50
2022-11-22T17:56:29.139Z,5.50
2022-11-22T17:58:56.194Z,5.50
2022-11-22T18:01:23.654Z,5.50
2022-11-22T18:03:50.810Z,5.50
2022-11-22T18:06:19.034Z,5.50
2022-11-22T18:08:47.420Z,5.50
2022-11-22T18:11:15.687Z,5.50
2022-11-22T18:13:42.894Z,5.60
2022-11-22T18:16:15.496Z,5.60
2022-11-22T18:18:58.539Z,5.60
2022-11-22T18:21:27.018Z,5.60
2022-11-22T18:23:53.907Z,5.60
2022-11-22T18:26:38.767Z,5.50
2022-11-22T18:31:54.537Z,5.50
2022-11-22T18:34:25.055Z,5.50
2022-11-22T18:36:59.404Z,5.50
2022-11-22T18:39:29.633Z,5.50
2022-11-22T18:41:56.759Z,5.50
2022-11-22T18:44:23.578Z,5.50
2022-11-22T18:46:50.448Z,5.50
2022-11-22T18:49:17.276Z,5.50
2022-11-22T18:51:44.128Z,5.50
2022-11-22T18:54:11.295Z,5.50
2022-11-22T18:56:40.261Z,5.50
2022-11-22T18:59:10.604Z,5.50
2022-11-22T19:01:37.588Z,5.50
2022-11-22T19:04:05.036Z,5.50
2022-11-22T19:06:32.088Z,5.50
2022-11-22T19:08:59.192Z,5.50
2022-11-22T19:11:26.303Z,5.40
2022-11-22T19:13:53.162Z,5.50
2022-11-22T19:16:22.122Z,5.60
2022-11-22T19:18:49.893Z,5.60
2022-11-22T19:21:19.295Z,5.50
2022-11-22T19:23:47.003Z,5.60
2022-11-22T19:26:15.780Z,5.60
2022-11-22T19:28:43.064Z,5.60
2022-11-22T19:31:15.226Z,5.60
2022-11-22T19:33:42.306Z,5.50
2022-11-22T19:36:20.864Z,5.60
2022-11-22T19:38:48.660Z,5.60
2022-11-22T19:41:18.084Z,5.60
2022-11-22T19:43:46.120Z,5.60
2022-11-22T19:46:13.892Z,5.60
2022-11-22T19:48:47.014Z,5.60
2022-11-22T19:51:15.600Z,5.70
2022-11-22T19:53:42.701Z,5.70
2022-11-22T19:56:18.050Z,5.70
2022-11-22T19:58:50.548Z,5.70
2022-11-22T20:01:17.807Z,5.70
2022-11-22T20:03:45.603Z,5.70
2022-11-22T20:06:13.907Z,5.60
2022-11-22T20:08:41.354Z,5.60
2022-11-22T20:11:11.188Z,5.60
2022-11-22T20:13:40.471Z,5.60
2022-11-22T20:16:11.382Z,5.60
2022-11-22T20:18:38.481Z,5.70
2022-11-22T20:21:07.019Z,5.70
2022-11-22T20:23:34.185Z,5.60
2022-11-22T20:26:12.105Z,5.60
2022-11-22T20:28:40.733Z,5.60
2022-11-22T20:31:14.713Z,5.60
2022-11-22T20:33:43.697Z,5.60
2022-11-22T20:36:19.317Z,5.60
2022-11-22T20:38:47.545Z,5.70
2022-11-22T20:41:15.751Z,5.60
2022-11-22T20:43:43.185Z,5.70
2022-11-22T20:46:12.505Z,5.70
2022-11-22T20:48:40.673Z,5.70
2022-11-22T20:51:10.434Z,5.70
2022-11-22T20:53:37.801Z,5.70
2022-11-22T20:56:05.490Z,5.70
2022-11-22T20:58:32.663Z,5.70
2022-11-22T21:01:04.324Z,5.70
2022-11-22T21:03:31.141Z,5.70
2022-11-22T21:05:58.025Z,5.70
2022-11-22T21:08:24.925Z,5.70
2022-11-22T21:10:51.699Z,5.70
2022-11-22T21:13:18.585Z,5.70
2022-11-22T21:15:45.462Z,5.70
2022-11-22T21:18:27.626Z,5.60
2022-11-22T21:20:54.521Z,5.60
2022-11-22T21:23:21.376Z,5.60
2022-11-22T21:25:50.562Z,5.70
2022-11-22T21:28:17.407Z,5.60
2022-11-22T21:30:44.206Z,5.60
2022-11-22T21:33:10.999Z,5.50
2022-11-22T21:35:37.887Z,5.50
2022-11-22T21:38:04.659Z,5.50
2022-11-22T21:40:31.511Z,5.50
2022-11-22T21:42:58.322Z,5.50
2022-11-22T21:45:25.126Z,5.50
2022-11-22T21:47:51.994Z,5.50
2022-11-22T21:50:18.946Z,5.50
2022-11-22T21:52:45.743Z,5.50
2022-11-22T21:55:13.072Z,5.50
2022-11-22T21:57:39.865Z,5.50
2022-11-22T22:00:07.298Z,5.50
2022-11-22T22:02:34.083Z,5.50
2022-11-22T22:05:00.848Z,5.50
2022-11-22T22:07:51.609Z,5.50
2022-11-22T22:10:15.336Z,5.50
2022-11-22T22:12:42.119Z,5.50
2022-11-22T22:15:13.261Z,5.50
2022-11-22T22:17:40.078Z,5.50
2022-11-22T22:20:07.452Z,5.40
2022-11-22T22:22:38.073Z,5.40
2022-11-22T22:25:06.163Z,5.40
2022-11-22T22:27:33.879Z,5.50
2022-11-22T22:30:00.994Z,5.40
2022-11-22T22:32:28.084Z,5.40
2022-11-22T22:34:55.005Z,5.50
2022-11-22T22:37:21.817Z,5.50
2022-11-22T22:39:51.498Z,5.50
2022-11-22T22:42:19.134Z,5.50
2022-11-22T22:44:46.286Z,5.50
2022-11-22T22:47:13.465Z,5.40
2022-11-22T22:49:40.220Z,5.50
2022-11-22T22:52:07.144Z,5.40
2022-11-22T22:54:34.033Z,5.40
2022-11-22T22:57:01.364Z,5.40
2022-11-22T22:59:29.317Z,5.40
2022-11-22T23:01:56.307Z,5.40
2022-11-22T23:04:23.217Z,5.40
2022-11-22T23:06:50.034Z,5.50
2022-11-22T23:09:16.814Z,5.40
2022-11-22T23:12:02.386Z,5.40
2022-11-22T23:14:30.202Z,5.40
2022-11-22T23:16:58.237Z,5.40
2022-11-22T23:19:26.737Z,5.40
2022-11-22T23:21:54.724Z,5.40
2022-11-22T23:24:21.549Z,5.50
2022-11-22T23:26:48.458Z,5.50
2022-11-22T23:29:15.299Z,5.50
2022-11-22T23:31:42.099Z,5.40
2022-11-22T23:34:11.062Z,5.50
2022-11-22T23:36:41.001Z,5.40
2022-11-22T23:39:08.406Z,5.40
2022-11-22T23:41:35.484Z,5.40
2022-11-22T23:44:02.302Z,5.50
2022-11-22T23:46:29.170Z,5.50
2022-11-22T23:49:00.707Z,5.50
2022-11-22T23:51:29.157Z,5.50
2022-11-22T23:54:01.484Z,5.50
2022-11-22T23:56:29.869Z,5.50
2022-11-22T23:58:59.537Z,5.50
